Terminal Aerodrome Forecast
Issued by NWS Shreveport, LA

Home | Current Version | Previous Version | Text Only | Print | Product List | Glossary On
Versions: 1 2 3 4 5 6 7 8 9 10 11 12 13 14 15 16 17 18 19 20 21 22 23 24
000
FTUS44 KSHV 300557 CCA
TAFSHV
TAF COR
KSHV 300557Z 3006/0106 15015G25KT P6SM VCTS BKN025 OVC030CB
      TEMPO 3006/3008 VRB15G35KT 3SM TSRA BR BKN010 OVC040CB
     FM300800 VRB15G25KT 3SM TSRA BR BKN010 OVC040CB
     FM301600 18012KT P6SM VCTS OVC025CB
     FM010000 19007KT P6SM BKN035=

USA.gov is the U.S. government's official web portal to all federal, state and local government web resources and services.